createdAt,value
2022-12-04T00:04:51.615Z,41.22
2022-12-04T00:09:44.837Z,42.67
2022-12-04T00:12:11.248Z,45.92
2022-12-04T00:15:00.513Z,39.13
2022-12-04T00:17:25.221Z,40.28
2022-12-04T00:19:52.015Z,35.58
2022-12-04T00:22:21.012Z,40.25
2022-12-04T00:24:47.483Z,45.80
2022-12-04T00:27:14.183Z,36.78
2022-12-04T00:29:41.372Z,40.47
2022-12-04T00:32:07.902Z,33.70
2022-12-04T00:37:01.040Z,33.45
2022-12-04T00:39:27.448Z,32.17
2022-12-04T00:41:53.879Z,39.70
2022-12-04T00:44:20.283Z,35.20
2022-12-04T00:46:46.705Z,31.23
2022-12-04T00:49:13.154Z,33.15
2022-12-04T00:51:39.570Z,32.08
2022-12-04T00:54:06.014Z,28.00
2022-12-04T00:56:32.539Z,33.10
2022-12-04T01:01:28.188Z,30.92
2022-12-04T01:03:55.988Z,31.30
2022-12-04T01:06:28.732Z,30.98
2022-12-04T01:08:56.900Z,33.22
2022-12-04T01:11:25.147Z,32.17
2022-12-04T01:13:52.164Z,36.00
2022-12-04T01:16:30.946Z,32.72
2022-12-04T01:18:57.481Z,32.05
2022-12-04T01:21:24.253Z,31.13
2022-12-04T01:23:50.728Z,30.42
2022-12-04T01:26:17.525Z,25.90
2022-12-04T01:28:44.110Z,29.70
2022-12-04T01:33:42.224Z,28.90
2022-12-04T01:36:11.563Z,30.73
2022-12-04T01:38:38.595Z,29.20
2022-12-04T01:41:06.112Z,24.50
2022-12-04T01:43:35.459Z,24.15
2022-12-04T01:46:02.683Z,26.90
2022-12-04T01:48:35.587Z,25.50
2022-12-04T01:51:19.871Z,30.20
2022-12-04T01:53:54.119Z,23.10
2022-12-04T01:56:25.589Z,26.52
2022-12-04T01:58:56.759Z,24.27
2022-12-04T02:01:23.521Z,24.27
2022-12-04T02:03:50.134Z,23.85
2022-12-04T02:06:16.551Z,27.17
2022-12-04T02:08:43.003Z,25.20
2022-12-04T02:11:24.705Z,24.48
2022-12-04T02:14:00.326Z,23.80
2022-12-04T02:16:41.473Z,25.58
2022-12-04T02:19:40.437Z,21.80
2022-12-04T02:22:22.127Z,28.70
2022-12-04T02:25:13.669Z,24.33
2022-12-04T02:27:40.200Z,19.73
2022-12-04T02:30:09.966Z,23.45
2022-12-04T02:32:46.229Z,23.75
2022-12-04T02:35:29.710Z,24.27
2022-12-04T02:38:06.336Z,23.65
2022-12-04T02:40:45.421Z,23.23
2022-12-04T02:43:16.983Z,21.98
2022-12-04T02:46:08.595Z,27.05
2022-12-04T02:48:40.349Z,21.25
2022-12-04T02:51:09.472Z,21.10
2022-12-04T02:53:41.670Z,22.85
2022-12-04T02:56:16.204Z,25.20
2022-12-04T02:58:51.588Z,23.80
2022-12-04T03:01:23.499Z,22.00
2022-12-04T03:04:00.127Z,24.67
2022-12-04T03:06:30.407Z,19.00
2022-12-04T03:09:06.454Z,23.38
2022-12-04T03:11:38.340Z,21.73
2022-12-04T03:14:31.372Z,22.00
2022-12-04T03:17:04.679Z,24.98
2022-12-04T03:19:41.538Z,22.35
2022-12-04T03:22:15.083Z,20.08
2022-12-04T03:24:50.694Z,22.35
2022-12-04T03:27:33.241Z,25.25
2022-12-04T03:30:05.780Z,21.25
2022-12-04T03:32:55.821Z,21.00
2022-12-04T03:35:26.873Z,18.83
2022-12-04T03:38:01.985Z,20.35
2022-12-04T03:40:46.175Z,23.20
2022-12-04T03:43:29.287Z,23.10
2022-12-04T03:46:02.856Z,25.42
2022-12-04T03:48:41.190Z,17.55
2022-12-04T03:51:14.507Z,21.70
2022-12-04T03:53:50.260Z,21.40
2022-12-04T03:56:20.371Z,23.02
2022-12-04T03:58:50.803Z,21.15
2022-12-04T04:01:20.331Z,19.27
2022-12-04T04:03:50.894Z,21.95
2022-12-04T04:06:23.213Z,19.42
2022-12-04T04:08:55.288Z,21.75
2022-12-04T04:11:55.341Z,20.55
2022-12-04T04:14:47.531Z,23.52
2022-12-04T04:17:38.982Z,22.65
2022-12-04T04:20:39.380Z,22.70
2022-12-04T04:23:28.862Z,22.83
2022-12-04T04:25:58.039Z,19.17
2022-12-04T04:28:33.143Z,19.90
2022-12-04T04:31:17.211Z,22.23
2022-12-04T04:34:07.156Z,17.60
2022-12-04T04:37:05.713Z,20.58
2022-12-04T04:39:50.767Z,17.98
2022-12-04T04:42:23.786Z,20.30
2022-12-04T04:45:13.892Z,18.48
2022-12-04T04:47:47.051Z,19.90
2022-12-04T04:50:16.079Z,19.15
2022-12-04T04:52:46.372Z,20.27
2022-12-04T04:55:16.152Z,13.88
2022-12-04T04:57:43.109Z,21.42
2022-12-04T05:00:19.495Z,18.45
2022-12-04T05:02:48.530Z,18.63
2022-12-04T05:05:14.956Z,19.05
2022-12-04T05:07:41.457Z,21.33
2022-12-04T05:12:35.383Z,19.95
2022-12-04T05:15:01.855Z,16.10
2022-12-04T05:17:28.356Z,19.33
2022-12-04T05:19:55.583Z,20.50
2022-12-04T05:22:35.908Z,23.20
2022-12-04T05:25:03.315Z,18.38
2022-12-04T05:27:30.700Z,19.85
2022-12-04T05:29:58.593Z,20.60
2022-12-04T05:32:27.461Z,22.15
2022-12-04T05:34:55.580Z,18.63
2022-12-04T05:37:22.338Z,19.83
2022-12-04T05:39:48.911Z,18.52
2022-12-04T05:44:41.760Z,20.95
2022-12-04T05:47:08.903Z,21.73
2022-12-04T05:49:35.431Z,20.13
2022-12-04T05:52:03.713Z,24.20
2022-12-04T05:54:30.232Z,19.05
2022-12-04T05:56:56.624Z,20.20
2022-12-04T05:59:23.232Z,21.17
2022-12-04T06:04:16.032Z,21.45
2022-12-04T06:06:42.469Z,25.85
2022-12-04T06:09:09.336Z,22.70
2022-12-04T06:11:38.496Z,25.48
2022-12-04T06:14:07.869Z,22.23
2022-12-04T06:16:37.198Z,21.52
2022-12-04T06:19:11.119Z,23.15
2022-12-04T06:21:40.069Z,21.33
2022-12-04T06:24:07.278Z,19.60
2022-12-04T06:26:33.764Z,19.15
2022-12-04T06:29:00.522Z,21.48
2022-12-04T06:31:29.598Z,21.45
2022-12-04T06:33:57.867Z,19.00
2022-12-04T06:36:24.942Z,24.70
2022-12-04T06:38:55.767Z,21.23
2022-12-04T06:41:23.876Z,19.60
2022-12-04T06:43:51.739Z,21.48
2022-12-04T06:46:21.874Z,20.20
2022-12-04T06:48:49.719Z,20.67
2022-12-04T06:51:22.222Z,19.20
2022-12-04T06:53:49.458Z,18.10
2022-12-04T06:56:19.323Z,22.77
2022-12-04T06:58:47.408Z,18.48
2022-12-04T07:01:17.565Z,21.30
2022-12-04T07:03:51.065Z,21.70
2022-12-04T07:06:27.230Z,18.85
2022-12-04T07:08:57.739Z,20.33
2022-12-04T07:11:24.264Z,19.13
2022-12-04T07:13:51.040Z,21.92
2022-12-04T07:16:20.264Z,21.45
2022-12-04T07:18:47.092Z,19.67
2022-12-04T07:21:19.019Z,24.52
2022-12-04T07:23:48.613Z,25.13
2022-12-04T07:26:15.033Z,23.05
2022-12-04T07:28:41.917Z,23.48
2022-12-04T07:31:14.830Z,22.20
2022-12-04T07:33:42.151Z,21.48
2022-12-04T07:36:12.439Z,22.30
2022-12-04T07:38:38.840Z,23.60
2022-12-04T07:41:06.462Z,27.23
2022-12-04T07:43:33.561Z,26.13
2022-12-04T07:46:05.419Z,28.20
2022-12-04T07:48:33.582Z,23.65
2022-12-04T07:51:09.025Z,28.77
2022-12-04T07:53:36.271Z,29.95
2022-12-04T07:56:08.452Z,29.75
2022-12-04T07:58:35.403Z,26.52
2022-12-04T08:01:12.845Z,23.38
2022-12-04T08:03:47.083Z,28.85
2022-12-04T08:06:15.525Z,24.33
2022-12-04T08:08:43.369Z,21.52
2022-12-04T08:11:12.574Z,24.17
2022-12-04T08:13:39.168Z,22.95
2022-12-04T08:21:09.640Z,24.02
2022-12-04T08:23:37.253Z,23.10
2022-12-04T08:26:05.099Z,25.42
2022-12-04T08:28:32.898Z,21.92
2022-12-04T08:31:04.940Z,24.70
2022-12-04T08:33:32.706Z,24.75
2022-12-04T08:35:59.393Z,28.02
2022-12-04T08:38:25.903Z,25.02
2022-12-04T08:40:53.372Z,24.52
2022-12-04T08:43:19.832Z,29.23
2022-12-04T08:45:55.221Z,26.60
2022-12-04T08:48:21.865Z,24.20
2022-12-04T08:50:48.604Z,23.30
2022-12-04T08:53:15.164Z,30.98
2022-12-04T08:55:41.692Z,30.95
2022-12-04T09:00:34.999Z,21.45
2022-12-04T09:03:01.623Z,23.75
2022-12-04T09:07:56.811Z,22.15
2022-12-04T09:10:23.755Z,24.13
2022-12-04T09:12:50.224Z,24.30
2022-12-04T09:15:16.750Z,21.83
2022-12-04T09:20:09.830Z,19.48
2022-12-04T09:23:02.146Z,20.33
2022-12-04T09:25:23.444Z,19.17
2022-12-04T09:27:50.030Z,18.65
2022-12-04T09:32:43.043Z,18.63
2022-12-04T09:37:36.663Z,24.13
2022-12-04T09:40:07.537Z,23.42
2022-12-04T09:42:47.934Z,24.58
2022-12-04T09:45:20.551Z,20.50
2022-12-04T09:47:50.148Z,24.52
2022-12-04T09:50:20.174Z,23.02
2022-12-04T09:53:03.654Z,21.55
2022-12-04T09:55:35.948Z,23.20
2022-12-04T09:58:06.460Z,22.88
2022-12-04T10:00:39.078Z,20.15
2022-12-04T10:03:07.918Z,19.15
2022-12-04T10:05:54.764Z,23.48
2022-12-04T10:08:31.796Z,22.60
2022-12-04T10:11:24.688Z,23.60
2022-12-04T10:14:23.530Z,22.42
2022-12-04T10:17:20.371Z,23.67
2022-12-04T10:20:02.624Z,21.73
2022-12-04T10:22:38.280Z,23.83
2022-12-04T10:25:18.633Z,23.63
2022-12-04T10:27:53.456Z,25.92
2022-12-04T10:30:28.862Z,23.35
2022-12-04T10:33:04.882Z,24.17
2022-12-04T10:35:33.084Z,22.70
2022-12-04T10:38:04.634Z,21.45
2022-12-04T10:40:56.162Z,20.70
2022-12-04T10:43:39.740Z,22.10
2022-12-04T10:46:10.729Z,25.02
2022-12-04T10:48:40.232Z,26.20
2022-12-04T10:51:14.138Z,31.38
2022-12-04T10:53:40.665Z,27.45
2022-12-04T10:56:17.883Z,28.92
2022-12-04T10:58:56.262Z,27.10
2022-12-04T11:01:23.542Z,28.33
2022-12-04T11:03:59.171Z,29.60
2022-12-04T11:06:27.107Z,33.22
2022-12-04T11:08:54.778Z,31.38
2022-12-04T11:11:35.558Z,30.17
2022-12-04T11:14:06.769Z,33.35
2022-12-04T11:16:46.213Z,34.65
2022-12-04T11:19:31.435Z,45.33
2022-12-04T11:22:12.285Z,39.88
2022-12-04T11:24:42.547Z,37.30
2022-12-04T11:27:21.160Z,33.22
2022-12-04T11:29:48.741Z,44.63
2022-12-04T11:32:28.878Z,35.70
2022-12-04T11:34:59.608Z,38.30
2022-12-04T11:37:29.316Z,38.60
2022-12-04T11:39:56.265Z,29.92
2022-12-04T11:42:25.545Z,38.55
2022-12-04T11:45:00.408Z,33.28
2022-12-04T11:47:33.104Z,34.60
2022-12-04T11:50:11.424Z,33.20
2022-12-04T11:52:59.611Z,34.42
2022-12-04T11:55:37.841Z,32.20
2022-12-04T11:58:04.205Z,32.97
2022-12-04T12:00:35.165Z,31.05
2022-12-04T12:03:10.341Z,30.20
2022-12-04T12:06:14.578Z,32.95
2022-12-04T12:09:03.056Z,34.42
2022-12-04T12:11:51.467Z,37.67
2022-12-04T12:14:30.102Z,33.42
2022-12-04T12:17:13.140Z,35.08
2022-12-04T12:20:22.577Z,39.13
2022-12-04T12:22:51.813Z,35.42
2022-12-04T12:25:24.548Z,30.45
2022-12-04T12:28:22.235Z,27.85
2022-12-04T12:31:06.114Z,36.25
2022-12-04T12:34:01.718Z,36.05
2022-12-04T12:36:32.963Z,34.97
2022-12-04T12:39:14.285Z,32.55
2022-12-04T12:41:58.643Z,35.90
2022-12-04T12:44:38.610Z,33.00
2022-12-04T12:47:12.878Z,30.75
2022-12-04T12:49:55.630Z,29.98
2022-12-04T12:52:46.139Z,30.52
2022-12-04T12:55:41.003Z,32.90
2022-12-04T12:58:17.289Z,33.65
2022-12-04T13:00:49.773Z,33.70
2022-12-04T13:03:19.087Z,32.75
2022-12-04T13:05:51.316Z,34.17
2022-12-04T13:08:38.749Z,35.35
2022-12-04T13:11:24.167Z,31.95
2022-12-04T13:13:54.803Z,30.75
2022-12-04T13:16:31.218Z,31.25
2022-12-04T13:19:11.327Z,33.63
2022-12-04T13:21:45.269Z,35.40
2022-12-04T13:24:20.844Z,33.83
2022-12-04T13:26:56.617Z,35.28
2022-12-04T13:29:49.130Z,35.00
2022-12-04T13:32:23.890Z,34.80
2022-12-04T13:35:02.168Z,33.08
2022-12-04T13:37:49.125Z,36.83
2022-12-04T13:40:29.047Z,35.77
2022-12-04T13:43:27.775Z,30.17
2022-12-04T13:45:56.829Z,29.00
2022-12-04T13:48:49.837Z,31.20
2022-12-04T13:51:16.359Z,38.17
2022-12-04T13:53:43.826Z,36.33
2022-12-04T13:56:26.091Z,36.78
2022-12-04T13:59:21.848Z,38.22
2022-12-04T14:01:50.552Z,30.95
2022-12-04T14:04:30.363Z,33.53
2022-12-04T14:06:59.996Z,32.55
2022-12-04T14:09:30.694Z,35.25
2022-12-04T14:12:00.460Z,31.60
2022-12-04T14:14:31.320Z,30.85
2022-12-04T14:16:59.840Z,29.83
2022-12-04T14:19:31.129Z,32.90
2022-12-04T14:21:58.567Z,34.20
2022-12-04T14:24:25.260Z,32.95
2022-12-04T14:29:50.497Z,35.50
2022-12-04T14:32:24.616Z,36.10
2022-12-04T14:34:53.032Z,35.80
2022-12-04T14:37:28.616Z,31.02
2022-12-04T14:39:57.566Z,33.15
2022-12-04T14:42:36.679Z,34.22
2022-12-04T14:45:25.650Z,38.88
2022-12-04T14:48:30.657Z,42.83
2022-12-04T14:51:14.575Z,36.55
2022-12-04T14:54:00.013Z,34.15
2022-12-04T14:56:41.576Z,36.05
2022-12-04T14:59:19.883Z,33.58
2022-12-04T15:01:48.667Z,46.50
2022-12-04T15:04:35.297Z,41.22
2022-12-04T15:07:02.422Z,38.08
2022-12-04T15:09:49.066Z,32.53
2022-12-04T15:12:34.763Z,35.58
2022-12-04T15:15:25.278Z,35.70
2022-12-04T15:17:58.019Z,34.15
2022-12-04T15:20:25.456Z,39.28
2022-12-04T15:22:57.224Z,32.88
2022-12-04T15:25:31.400Z,28.23
2022-12-04T15:28:42.091Z,39.15
2022-12-04T15:31:17.344Z,35.45
2022-12-04T15:33:45.602Z,42.50
2022-12-04T15:36:21.736Z,30.25
2022-12-04T15:38:50.715Z,38.58
2022-12-04T15:41:29.623Z,31.42
2022-12-04T15:43:56.230Z,37.10
2022-12-04T15:46:32.248Z,46.05
2022-12-04T15:49:07.457Z,41.08
2022-12-04T15:51:34.015Z,40.88
2022-12-04T15:54:02.478Z,35.25
2022-12-04T15:56:29.383Z,33.72
2022-12-04T15:58:59.744Z,39.53
2022-12-04T16:01:26.629Z,33.92
2022-12-04T16:03:55.866Z,36.78
2022-12-04T16:06:28.491Z,37.35
2022-12-04T16:09:00.143Z,32.95
2022-12-04T16:11:31.372Z,38.10
2022-12-04T16:14:05.769Z,35.15
2022-12-04T16:16:32.428Z,37.20
2022-12-04T16:21:30.887Z,33.40
2022-12-04T16:24:05.151Z,35.83
2022-12-04T16:26:32.076Z,40.65
2022-12-04T16:28:59.222Z,42.20
2022-12-04T16:31:27.410Z,46.70
2022-12-04T16:33:53.869Z,49.17
2022-12-04T16:36:20.503Z,46.67
2022-12-04T16:41:18.614Z,52.47
2022-12-04T16:43:45.090Z,40.83
2022-12-04T16:46:14.961Z,40.75
2022-12-04T16:48:42.213Z,43.17
2022-12-04T16:51:15.543Z,43.55
2022-12-04T16:53:42.411Z,43.08
2022-12-04T16:56:09.355Z,48.03
2022-12-04T16:58:36.078Z,43.13
2022-12-04T17:01:05.560Z,45.55
2022-12-04T17:03:33.676Z,52.38
2022-12-04T17:06:01.088Z,49.20
2022-12-04T17:08:28.018Z,54.58
2022-12-04T17:10:54.639Z,45.72
2022-12-04T17:15:48.950Z,49.97
2022-12-04T17:18:20.776Z,51.22
2022-12-04T17:20:48.134Z,50.35
2022-12-04T17:23:14.615Z,52.25
2022-12-04T17:25:41.122Z,48.10
2022-12-04T17:28:07.872Z,52.22
2022-12-04T17:30:36.158Z,49.10
2022-12-04T17:33:03.903Z,47.10
2022-12-04T17:35:30.750Z,46.78
2022-12-04T17:38:02.092Z,54.90
2022-12-04T17:40:32.328Z,46.38
2022-12-04T17:42:58.761Z,52.15
2022-12-04T17:45:25.154Z,51.17
2022-12-04T17:47:51.832Z,49.30
2022-12-04T17:50:18.518Z,45.42
2022-12-04T17:55:11.423Z,48.72
2022-12-04T17:57:37.957Z,46.60
2022-12-04T18:02:39.065Z,49.88
2022-12-04T18:05:05.757Z,47.67
2022-12-04T18:07:32.242Z,54.20
2022-12-04T18:12:26.172Z,48.78
2022-12-04T18:17:20.905Z,52.75
2022-12-04T18:19:47.507Z,57.63
2022-12-04T18:22:14.018Z,66.07
2022-12-04T18:27:08.208Z,49.28
2022-12-04T18:29:34.905Z,55.28
2022-12-04T18:34:27.906Z,52.70
2022-12-04T18:36:54.399Z,53.63
2022-12-04T18:41:48.854Z,52.38
2022-12-04T18:44:16.515Z,49.78
2022-12-04T18:46:43.640Z,49.92
2022-12-04T18:49:11.306Z,48.13
2022-12-04T18:51:48.849Z,49.80
2022-12-04T18:54:22.029Z,56.35
2022-12-04T18:56:49.392Z,51.55
2022-12-04T18:59:19.171Z,53.05
2022-12-04T19:01:48.533Z,50.22
2022-12-04T19:04:17.383Z,50.05
2022-12-04T19:06:46.648Z,51.10
2022-12-04T19:09:19.231Z,56.17
2022-12-04T19:11:46.348Z,48.38
2022-12-04T19:14:22.477Z,52.15
2022-12-04T19:16:50.213Z,52.72
2022-12-04T19:19:17.054Z,51.05
2022-12-04T19:21:44.548Z,47.85
2022-12-04T19:24:12.177Z,55.50
2022-12-04T19:26:39.206Z,48.80
2022-12-04T19:29:07.126Z,47.15
2022-12-04T19:31:36.636Z,51.22
2022-12-04T19:34:04.429Z,52.03
2022-12-04T19:36:32.516Z,47.10
2022-12-04T19:39:00.703Z,48.15
2022-12-04T19:41:30.158Z,48.78
2022-12-04T19:43:59.479Z,57.10
2022-12-04T19:46:29.354Z,50.40
2022-12-04T19:48:58.722Z,42.25
2022-12-04T19:51:26.256Z,47.70
2022-12-04T19:53:54.629Z,50.15
2022-12-04T19:56:24.589Z,47.00
2022-12-04T19:58:57.826Z,42.70
2022-12-04T20:01:26.667Z,49.60
2022-12-04T20:03:53.597Z,49.70
2022-12-04T20:06:22.368Z,58.90
2022-12-04T20:08:57.524Z,53.55
2022-12-04T20:11:24.982Z,54.75
2022-12-04T20:13:55.472Z,46.78
2022-12-04T20:16:25.320Z,54.42
2022-12-04T20:18:52.612Z,45.25
2022-12-04T20:21:20.857Z,54.10
2022-12-04T20:23:50.396Z,47.75
2022-12-04T20:26:20.742Z,51.67
2022-12-04T20:28:47.843Z,47.97
2022-12-04T20:31:17.352Z,48.22
2022-12-04T20:33:44.984Z,40.72
2022-12-04T20:36:13.145Z,44.47
2022-12-04T20:38:40.264Z,38.58
2022-12-04T20:41:10.301Z,44.90
2022-12-04T20:43:37.646Z,45.20
2022-12-04T20:46:16.139Z,47.25
2022-12-04T20:48:49.399Z,39.25
2022-12-04T20:51:16.789Z,43.03
2022-12-04T20:53:43.928Z,42.03
2022-12-04T20:56:10.559Z,42.47
2022-12-04T21:01:09.261Z,42.60
2022-12-04T21:03:35.961Z,46.20
2022-12-04T21:08:48.427Z,41.55
2022-12-04T21:11:15.551Z,40.90
2022-12-04T21:14:00.858Z,37.65
2022-12-04T21:16:27.492Z,43.15
2022-12-04T21:21:20.496Z,46.60
2022-12-04T21:26:14.323Z,47.92
2022-12-04T21:28:40.786Z,42.60
2022-12-04T21:33:34.396Z,45.88
2022-12-04T21:36:04.742Z,46.88
2022-12-04T21:38:36.217Z,44.83
2022-12-04T21:41:03.519Z,45.30
2022-12-04T21:43:31.427Z,44.38
2022-12-04T21:46:09.414Z,50.10
2022-12-04T21:48:36.955Z,56.97
2022-12-04T21:51:21.228Z,49.13
2022-12-04T21:53:54.772Z,49.83
2022-12-04T21:56:24.885Z,49.05
2022-12-04T21:58:52.641Z,49.90
2022-12-04T22:01:22.042Z,51.42
2022-12-04T22:03:51.304Z,49.25
2022-12-04T22:06:21.688Z,48.53
2022-12-04T22:08:48.348Z,49.63
2022-12-04T22:13:41.757Z,48.20
2022-12-04T22:16:11.661Z,48.00
2022-12-04T22:18:38.397Z,45.47
2022-12-04T22:23:36.077Z,46.60
2022-12-04T22:26:11.472Z,55.10
2022-12-04T22:28:38.726Z,53.15
2022-12-04T22:31:11.518Z,53.25
2022-12-04T22:33:38.601Z,53.13
2022-12-04T22:36:07.787Z,49.50
2022-12-04T22:38:47.278Z,54.33
2022-12-04T22:41:23.075Z,49.13
2022-12-04T22:43:49.884Z,46.13
2022-12-04T22:46:17.235Z,46.78
2022-12-04T22:48:44.161Z,50.15
2022-12-04T22:51:14.831Z,44.80
2022-12-04T22:53:53.000Z,44.88
2022-12-04T22:56:31.278Z,44.75
2022-12-04T22:58:58.607Z,44.60
2022-12-04T23:01:30.511Z,40.20
2022-12-04T23:03:57.778Z,41.40
2022-12-04T23:06:26.780Z,42.20
2022-12-04T23:09:02.833Z,41.85
2022-12-04T23:11:29.622Z,47.45
2022-12-04T23:14:00.023Z,40.85
2022-12-04T23:16:28.023Z,45.13
2022-12-04T23:18:54.785Z,44.63
2022-12-04T23:21:22.720Z,40.85
2022-12-04T23:23:50.921Z,41.97
2022-12-04T23:26:29.797Z,37.13
2022-12-04T23:28:56.914Z,35.35
2022-12-04T23:31:24.115Z,39.33
2022-12-04T23:33:51.352Z,33.47
2022-12-04T23:36:17.999Z,38.10
2022-12-04T23:41:12.673Z,30.55
2022-12-04T23:43:39.749Z,33.70
2022-12-04T23:46:10.971Z,33.88
2022-12-04T23:48:38.181Z,31.45
2022-12-04T23:51:04.620Z,29.65
2022-12-04T23:53:31.032Z,32.75
2022-12-04T23:56:04.107Z,28.25
2022-12-04T23:58:31.573Z,27.05
